Lewiston, New York
Current Conditions -  °F | °C
As of 10:53 PM on Sunday 21 Dec 2014 (Local Time) from KIAG Reporting Station
Overcast Overcast  
Wind Chill: 25°   Ceiling: 2500
Heat Index: 30°   Visibility: 10mi
Dew Point: 22°   Wind: 5mph
Humidity: 72%   Direction: 110°ESE
Pressure: 30.27"   Gusts: NA
Location:  43.17°N, 79.04°W
Report Text: KIAG 220353Z 11004KT 10SM OVC025 M01/M06 A3027 RMK AO2 SLP266 LAST T10111056
Loading
Personal Weather Stations






























Interactive Weather Map New forecast layout! Learn more

10-Day Weather Forecast

Advertisements
Track Severe Weather on mobile